Time;durP1;ratioP1;P1;durP2;ratioP2;P2;SDS_P1;SDS_P2;PMS_P1;PMS_P2;Temp;Humidity;BMP_temperature;BMP_pressure;BME280_temperature;BME280_humidity;BME280_pressure;Samples;Min_cycle;Max_cycle;Signal;HPM_P1;HPM_P2
2021/06/16 00:01:51;;;;;;;7.65;3.60;;;19.90;99.90;;;;;;5068181;28;20498;-57
2021/06/16 00:04:17;;;;;;;7.63;3.33;;;19.90;99.90;;;;;;5068433;28;20044;-55
2021/06/16 00:06:43;;;;;;;6.60;3.20;;;19.90;99.90;;;;;;5067909;28;20028;-57
2021/06/16 00:09:09;;;;;;;6.00;3.40;;;19.90;99.90;;;;;;5069096;28;20108;-57
2021/06/16 00:11:35;;;;;;;6.07;3.05;;;19.80;99.90;;;;;;5066343;28;20040;-58
2021/06/16 00:14:01;;;;;;;6.80;3.20;;;19.80;99.90;;;;;;5071998;28;20355;-57
2021/06/16 00:16:27;;;;;;;7.57;3.65;;;19.80;99.90;;;;;;5071755;28;20024;-56
2021/06/16 00:18:53;;;;;;;7.03;2.92;;;19.70;99.90;;;;;;5079282;28;20031;-55
2021/06/16 00:21:20;;;;;;;5.45;2.90;;;19.60;99.90;;;;;;5072261;28;20067;-59
2021/06/16 00:23:47;;;;;;;9.90;3.60;;;19.50;99.90;;;;;;5072829;28;20032;-56
2021/06/16 00:26:12;;;;;;;6.68;3.05;;;19.50;99.90;;;;;;5059873;28;20040;-59
2021/06/16 00:28:38;;;;;;;5.95;3.42;;;19.50;99.90;;;;;;5056538;28;20036;-56
2021/06/16 00:31:04;;;;;;;6.78;3.13;;;19.50;99.90;;;;;;5057411;28;20037;-58
2021/06/16 00:33:30;;;;;;;7.75;2.90;;;19.40;99.90;;;;;;5043285;23;20492;-60
2021/06/16 00:35:55;;;;;;;14.32;3.53;;;19.40;99.90;;;;;;5011436;28;20026;-58
2021/06/16 00:38:21;;;;;;;7.13;3.53;;;19.40;99.90;;;;;;5009189;28;20127;-59
2021/06/16 00:40:46;;;;;;;5.93;3.25;;;19.30;99.90;;;;;;5012846;28;20586;-61
2021/06/16 00:43:12;;;;;;;5.30;3.90;;;19.30;99.90;;;;;;5009996;28;20492;-61
2021/06/16 00:45:38;;;;;;;8.60;3.90;;;19.20;99.90;;;;;;5011053;28;20116;-61
2021/06/16 00:48:04;;;;;;;7.63;3.45;;;19.20;99.90;;;;;;5010243;28;20101;-61
2021/06/16 00:50:35;;;;;;;6.75;3.58;;;19.20;99.90;;;;;;5009867;28;20124;-60
2021/06/16 00:53:01;;;;;;;8.20;3.50;;;19.10;99.90;;;;;;5009300;28;20041;-62
2021/06/16 00:55:27;;;;;;;11.88;3.58;;;19.00;99.90;;;;;;5009705;28;20045;-62
2021/06/16 00:57:53;;;;;;;11.02;3.75;;;19.00;99.90;;;;;;5013395;28;20108;-58
2021/06/16 01:00:23;;;;;;;9.50;3.25;;;18.90;99.90;;;;;;5012769;28;20058;-61
2021/06/16 01:03:03;;;;;;;7.03;3.65;;;18.80;99.90;;;;;;5007565;28;20038;-62
2021/06/16 01:05:37;;;;;;;9.60;3.70;;;18.80;99.90;;;;;;5007936;28;20099;-62
2021/06/16 01:08:04;;;;;;;7.82;4.10;;;18.80;99.90;;;;;;5010407;28;20034;-62
2021/06/16 01:10:34;;;;;;;12.73;3.97;;;18.70;99.90;;;;;;5012841;28;20431;-62
2021/06/16 01:13:02;;;;;;;10.23;3.55;;;18.60;99.90;;;;;;5008347;28;20025;-63
2021/06/16 01:15:39;;;;;;;6.88;3.58;;;18.70;99.90;;;;;;5008910;28;20029;-62
2021/06/16 01:18:05;;;;;;;7.50;4.00;;;18.80;99.90;;;;;;5011179;28;20109;-61
2021/06/16 01:20:39;;;;;;;15.80;3.72;;;18.80;99.90;;;;;;5011371;28;20200;-61
2021/06/16 01:23:08;;;;;;;;;;;18.80;99.90;;;;;;5008130;28;20496;-64
2021/06/16 01:25:41;;;;;;;8.73;3.67;;;18.70;99.90;;;;;;5007823;28;19917;-61
2021/06/16 01:28:08;;;;;;;9.57;4.40;;;18.70;99.90;;;;;;5006349;28;20079;-63
2021/06/16 01:30:35;;;;;;;7.43;3.80;;;18.60;99.90;;;;;;5008962;28;20655;-61
2021/06/16 01:33:02;;;;;;;9.98;4.22;;;18.60;99.90;;;;;;5005523;28;20047;-61
2021/06/16 01:35:29;;;;;;;9.40;4.57;;;18.50;99.90;;;;;;5008448;28;20040;-63
2021/06/16 01:37:57;;;;;;;7.55;4.07;;;18.40;99.90;;;;;;5011202;28;20037;-62
2021/06/16 01:40:25;;;;;;;11.13;4.13;;;18.30;99.90;;;;;;5010918;28;20034;-64
2021/06/16 01:42:53;;;;;;;8.13;4.75;;;18.30;99.90;;;;;;5008610;28;20026;-60
2021/06/16 01:45:20;;;;;;;11.77;4.63;;;18.30;99.90;;;;;;5011512;28;20068;-61
2021/06/16 01:47:47;;;;;;;7.45;4.03;;;18.20;99.90;;;;;;5010851;28;20033;-60
2021/06/16 01:50:16;;;;;;;7.07;3.70;;;18.10;99.90;;;;;;5009078;28;20092;-60
2021/06/16 01:52:43;;;;;;;8.65;4.20;;;18.20;99.90;;;;;;5008602;28;20037;-61
2021/06/16 01:55:10;;;;;;;11.77;4.35;;;18.20;99.90;;;;;;5011376;28;20014;-65
2021/06/16 01:57:37;;;;;;;9.57;4.53;;;18.20;99.90;;;;;;5010572;28;20062;-63
2021/06/16 02:00:05;;;;;;;11.73;4.40;;;18.20;99.90;;;;;;5008659;28;20046;-62
2021/06/16 02:02:31;;;;;;;12.02;4.60;;;18.10;99.90;;;;;;5010193;28;20026;-60
2021/06/16 02:04:58;;;;;;;7.13;4.45;;;18.10;99.90;;;;;;5010554;28;20034;-62
2021/06/16 02:07:28;;;;;;;9.38;4.18;;;18.00;99.90;;;;;;5012690;28;20100;-58
2021/06/16 02:09:55;;;;;;;15.30;4.68;;;17.90;99.90;;;;;;5013049;28;20030;-61
2021/06/16 02:12:21;;;;;;;12.07;4.40;;;17.90;99.90;;;;;;5007187;28;20336;-60
2021/06/16 02:14:58;;;;;;;7.43;4.40;;;17.80;99.90;;;;;;5010848;28;20030;-62
2021/06/16 02:17:29;;;;;;;7.95;4.40;;;17.80;99.90;;;;;;5011653;28;20026;-60
2021/06/16 02:19:55;;;;;;;10.35;4.75;;;17.70;99.90;;;;;;5010715;28;20037;-59
2021/06/16 02:22:24;;;;;;;11.18;5.07;;;17.60;99.90;;;;;;5004358;28;20030;-59
2021/06/16 02:24:50;;;;;;;16.17;5.53;;;17.60;99.90;;;;;;5010980;28;20468;-59
2021/06/16 02:27:16;;;;;;;12.88;5.85;;;17.60;99.90;;;;;;5006610;28;20109;-59
2021/06/16 02:29:41;;;;;;;7.55;4.70;;;17.60;99.90;;;;;;5008449;28;20433;-63
2021/06/16 02:32:08;;;;;;;12.18;4.93;;;17.60;99.90;;;;;;5007598;28;20022;-59
2021/06/16 02:34:34;;;;;;;11.95;4.63;;;17.60;99.90;;;;;;5010022;28;20314;-57
2021/06/16 02:37:02;;;;;;;11.40;4.68;;;17.60;99.90;;;;;;5010711;28;20472;-63
2021/06/16 02:39:38;;;;;;;8.48;4.53;;;17.60;99.90;;;;;;5003418;28;20143;-62
2021/06/16 02:42:05;;;;;;;12.27;5.25;;;17.50;99.90;;;;;;5012135;28;20480;-60
2021/06/16 02:44:31;;;;;;;14.15;6.35;;;17.50;99.90;;;;;;5009818;28;20044;-59
2021/06/16 02:46:59;;;;;;;17.42;9.73;;;17.50;99.90;;;;;;5012041;28;20034;-60
2021/06/16 02:49:32;;;;;;;13.77;7.60;;;17.50;99.90;;;;;;5011775;28;20030;-60
2021/06/16 02:52:00;;;;;;;17.00;8.80;;;17.60;99.90;;;;;;5009832;28;20501;-59
2021/06/16 02:54:28;;;;;;;22.27;8.57;;;17.50;99.90;;;;;;5009956;28;20084;-59
2021/06/16 02:56:55;;;;;;;13.23;6.30;;;17.60;99.90;;;;;;5009061;28;20022;-61
2021/06/16 02:59:22;;;;;;;9.50;5.53;;;17.60;99.90;;;;;;5008249;28;20041;-61
2021/06/16 03:01:49;;;;;;;12.98;5.97;;;17.50;99.90;;;;;;5010565;28;20029;-62
2021/06/16 03:04:15;;;;;;;10.07;5.28;;;17.50;99.90;;;;;;5011480;28;20053;-61
2021/06/16 03:06:42;;;;;;;10.25;5.75;;;17.50;99.90;;;;;;5006328;28;20045;-58
2021/06/16 03:09:09;;;;;;;12.35;6.68;;;17.40;99.90;;;;;;5010294;28;20032;-61
2021/06/16 03:11:34;;;;;;;10.35;6.07;;;17.40;99.90;;;;;;5011118;28;20033;-60
2021/06/16 03:14:02;;;;;;;10.07;5.05;;;17.50;99.90;;;;;;5010587;28;20033;-61
2021/06/16 03:16:28;;;;;;;8.35;5.38;;;17.50;99.90;;;;;;5009419;28;20034;-60
2021/06/16 03:18:54;;;;;;;10.20;5.03;;;17.40;99.90;;;;;;5010960;28;20476;-62
2021/06/16 03:21:20;;;;;;;12.68;5.28;;;17.50;99.90;;;;;;5010787;28;20109;-62
2021/06/16 03:23:49;;;;;;;10.48;5.22;;;17.50;99.90;;;;;;5006616;28;20427;-65
2021/06/16 03:26:19;;;;;;;17.98;5.15;;;17.60;99.90;;;;;;5010162;28;20029;-63
2021/06/16 03:28:47;;;;;;;7.78;5.15;;;17.60;99.90;;;;;;5004329;28;20523;-60
2021/06/16 03:31:13;;;;;;;9.75;5.15;;;17.70;99.90;;;;;;5008615;28;20053;-60
2021/06/16 03:33:40;;;;;;;10.00;5.03;;;17.70;99.90;;;;;;5010595;28;20049;-61
2021/06/16 03:36:07;;;;;;;12.38;5.95;;;17.80;99.90;;;;;;5006281;28;20022;-60
2021/06/16 03:38:37;;;;;;;15.65;5.63;;;17.80;99.90;;;;;;5008270;28;20037;-59
2021/06/16 03:41:04;;;;;;;8.07;4.93;;;17.90;99.90;;;;;;5005450;28;20573;-63
2021/06/16 03:43:30;;;;;;;9.65;5.78;;;17.90;99.90;;;;;;5011240;28;20038;-60
2021/06/16 03:45:57;;;;;;;10.63;6.05;;;17.90;99.90;;;;;;5008536;28;20514;-60
2021/06/16 03:48:26;;;;;;;9.43;5.43;;;17.90;99.90;;;;;;5009526;28;20368;-61
2021/06/16 03:50:52;;;;;;;13.63;6.22;;;17.90;99.90;;;;;;5010999;28;20038;-59
2021/06/16 03:53:19;;;;;;;9.88;5.80;;;17.90;99.90;;;;;;5008386;28;20030;-62
2021/06/16 03:55:48;;;;;;;16.73;5.70;;;17.90;99.90;;;;;;5009749;28;20392;-62
2021/06/16 03:58:14;;;;;;;9.25;5.05;;;18.00;99.90;;;;;;5011041;28;20385;-59
2021/06/16 04:00:41;;;;;;;8.98;5.28;;;18.00;99.90;;;;;;5010649;28;20460;-62
2021/06/16 04:03:07;;;;;;;11.52;5.57;;;18.00;99.90;;;;;;5011196;28;20114;-60
2021/06/16 04:05:33;;;;;;;10.65;5.60;;;18.00;99.90;;;;;;5009251;28;20199;-60
2021/06/16 04:08:00;;;;;;;14.18;5.50;;;18.10;99.90;;;;;;5007861;28;20101;-58
2021/06/16 04:10:26;;;;;;;11.25;6.18;;;18.10;99.90;;;;;;5010403;28;20029;-60
2021/06/16 04:12:52;;;;;;;14.70;7.03;;;18.10;99.90;;;;;;5009061;28;20160;-59
2021/06/16 04:15:19;;;;;;;9.30;6.03;;;18.20;99.90;;;;;;5006961;28;20109;-60
2021/06/16 04:17:45;;;;;;;10.10;6.88;;;18.20;99.90;;;;;;5010207;28;20026;-60
2021/06/16 04:20:11;;;;;;;9.45;6.43;;;18.20;99.90;;;;;;5011414;28;20038;-61
2021/06/16 04:22:38;;;;;;;12.43;6.93;;;18.20;99.90;;;;;;5005965;28;20037;-63
2021/06/16 04:25:05;;;;;;;11.15;7.00;;;18.20;99.90;;;;;;5011033;28;20038;-61
2021/06/16 04:27:30;;;;;;;11.82;6.38;;;18.20;99.90;;;;;;5007028;28;20022;-63
2021/06/16 04:29:56;;;;;;;13.32;7.07;;;18.20;99.90;;;;;;4999805;28;20423;-63
2021/06/16 04:32:21;;;;;;;10.13;5.88;;;18.20;99.90;;;;;;5008225;28;20026;-63
2021/06/16 04:34:47;;;;;;;10.23;6.70;;;18.20;99.90;;;;;;5010595;28;20026;-62
2021/06/16 04:37:12;;;;;;;11.95;7.22;;;18.20;99.90;;;;;;5009952;28;20050;-62
2021/06/16 04:39:38;;;;;;;16.88;6.85;;;18.20;99.90;;;;;;5011221;28;20030;-60
2021/06/16 04:42:04;;;;;;;10.55;6.03;;;18.20;99.90;;;;;;5009841;28;20495;-61
2021/06/16 04:44:30;;;;;;;10.35;6.43;;;18.30;99.90;;;;;;5009556;28;20041;-62
2021/06/16 04:46:56;;;;;;;11.63;6.80;;;18.40;99.90;;;;;;5008434;28;20030;-62
2021/06/16 04:49:22;;;;;;;7.30;5.78;;;18.50;99.90;;;;;;5010223;28;20037;-62
2021/06/16 04:51:48;;;;;;;13.15;7.10;;;18.50;99.90;;;;;;5008240;28;20018;-60
2021/06/16 04:54:14;;;;;;;13.65;7.00;;;18.60;99.90;;;;;;5008289;28;20506;-61
2021/06/16 04:56:40;;;;;;;10.02;6.70;;;18.60;99.90;;;;;;5007831;28;20646;-62
2021/06/16 04:59:06;;;;;;;12.02;7.30;;;18.70;99.90;;;;;;5009837;28;20022;-62
2021/06/16 05:01:34;;;;;;;17.70;7.40;;;18.70;99.90;;;;;;5011087;28;20029;-61
2021/06/16 05:04:00;;;;;;;12.32;7.65;;;18.80;99.90;;;;;;5013243;28;20407;-62
2021/06/16 05:06:25;;;;;;;12.20;7.00;;;18.70;99.90;;;;;;5013114;28;20026;-63
2021/06/16 05:08:51;;;;;;;10.90;7.00;;;18.70;99.90;;;;;;5011761;28;20281;-59
2021/06/16 05:11:16;;;;;;;8.93;7.00;;;18.70;99.90;;;;;;5008964;28;20057;-63
2021/06/16 05:13:42;;;;;;;8.93;6.57;;;18.80;99.90;;;;;;5009013;28;20029;-61
2021/06/16 05:16:08;;;;;;;9.15;6.57;;;18.80;99.90;;;;;;5007438;28;20022;-62
2021/06/16 05:18:33;;;;;;;14.10;7.43;;;18.80;99.90;;;;;;5007574;28;20140;-61
2021/06/16 05:20:59;;;;;;;9.70;7.03;;;18.80;99.90;;;;;;5002422;28;20519;-57
2021/06/16 05:23:27;;;;;;;17.13;7.63;;;18.80;99.90;;;;;;5005845;28;20061;-58
2021/06/16 05:25:52;;;;;;;15.05;7.38;;;18.90;99.90;;;;;;5013204;28;20415;-63
2021/06/16 05:28:18;;;;;;;15.63;7.00;;;18.80;99.90;;;;;;5012080;28;20018;-60
2021/06/16 05:30:43;;;;;;;12.75;7.72;;;18.90;99.90;;;;;;5008239;28;20089;-57
2021/06/16 05:33:09;;;;;;;20.17;8.43;;;18.90;99.90;;;;;;5009077;28;20080;-59
2021/06/16 05:35:35;;;;;;;36.15;13.60;;;18.90;99.90;;;;;;5009994;28;20033;-63
2021/06/16 05:38:02;;;;;;;28.48;13.38;;;18.90;99.90;;;;;;5007727;28;20029;-59
2021/06/16 05:40:27;;;;;;;29.13;11.25;;;19.00;99.90;;;;;;5009434;28;20069;-60
2021/06/16 05:42:53;;;;;;;18.60;9.63;;;19.00;99.90;;;;;;5001940;28;20029;-60
2021/06/16 05:45:18;;;;;;;14.90;8.90;;;19.00;99.90;;;;;;5009254;28;20471;-61
2021/06/16 05:47:44;;;;;;;20.20;10.75;;;19.00;99.90;;;;;;5001832;28;20037;-63
2021/06/16 05:50:10;;;;;;;15.90;8.95;;;19.10;99.90;;;;;;5005273;28;20033;-63
2021/06/16 05:52:36;;;;;;;12.43;7.07;;;19.10;99.90;;;;;;5005451;28;20046;-61
2021/06/16 05:55:03;;;;;;;13.35;8.05;;;19.20;99.90;;;;;;5006111;28;20376;-64
2021/06/16 05:57:29;;;;;;;9.52;7.78;;;19.20;99.90;;;;;;5010142;28;20026;-61
2021/06/16 05:59:54;;;;;;;9.07;6.80;;;19.20;99.90;;;;;;5010431;28;20026;-58
2021/06/16 06:02:20;;;;;;;11.60;7.88;;;19.30;99.90;;;;;;5012987;28;20026;-62
2021/06/16 06:04:46;;;;;;;57.97;12.27;;;19.40;99.90;;;;;;5012091;28;20036;-62
2021/06/16 06:07:11;;;;;;;118.60;20.40;;;19.40;99.90;;;;;;5010905;28;20510;-60
2021/06/16 06:09:37;;;;;;;42.83;10.52;;;19.50;99.90;;;;;;5010663;28;20076;-59
2021/06/16 06:12:03;;;;;;;26.10;9.57;;;19.60;99.90;;;;;;5011876;28;20083;-60
2021/06/16 06:14:28;;;;;;;16.30;7.60;;;19.70;99.90;;;;;;5006183;28;20094;-60
2021/06/16 06:16:54;;;;;;;16.45;7.38;;;19.80;99.90;;;;;;5013200;28;20021;-61
2021/06/16 06:19:19;;;;;;;16.08;8.07;;;19.80;99.90;;;;;;5018189;28;20037;-57
2021/06/16 06:21:45;;;;;;;13.38;8.75;;;19.90;99.90;;;;;;5017916;28;20113;-61
2021/06/16 06:24:10;;;;;;;10.73;6.80;;;19.90;99.90;;;;;;5017291;28;20022;-58
2021/06/16 06:26:36;;;;;;;15.50;7.65;;;20.00;99.90;;;;;;5018362;28;20061;-58
2021/06/16 06:29:03;;;;;;;12.35;7.50;;;20.00;99.90;;;;;;5007469;28;20034;-57
2021/06/16 06:31:29;;;;;;;12.02;7.18;;;20.10;99.90;;;;;;5021630;28;20056;-58
2021/06/16 06:33:55;;;;;;;20.85;7.75;;;20.10;99.90;;;;;;5051840;22;20143;-58
2021/06/16 06:36:21;;;;;;;20.90;7.85;;;20.10;99.90;;;;;;5029680;28;20017;-59
2021/06/16 06:38:48;;;;;;;20.02;6.95;;;20.20;99.90;;;;;;5030360;28;20108;-60
2021/06/16 06:41:14;;;;;;;15.82;7.57;;;20.20;99.90;;;;;;5030462;28;20026;-60
2021/06/16 06:43:40;;;;;;;15.68;7.40;;;20.30;99.90;;;;;;5030475;28;20522;-59
2021/06/16 06:46:06;;;;;;;10.50;7.35;;;20.30;99.90;;;;;;5030405;28;20033;-61
2021/06/16 06:48:31;;;;;;;19.30;7.90;;;20.40;99.90;;;;;;5033053;28;20029;-62
2021/06/16 06:50:57;;;;;;;14.48;7.45;;;20.50;99.90;;;;;;5030402;28;20392;-61
2021/06/16 06:53:24;;;;;;;15.23;7.47;;;20.60;99.90;;;;;;5030162;28;20377;-60
2021/06/16 06:55:50;;;;;;;10.88;7.22;;;20.60;99.90;;;;;;5030891;28;20175;-56
2021/06/16 06:58:15;;;;;;;16.27;7.93;;;20.70;99.90;;;;;;5031792;28;20100;-57
2021/06/16 07:00:41;;;;;;;12.02;7.20;;;20.70;99.90;;;;;;5026179;28;20467;-59
2021/06/16 07:03:07;;;;;;;15.40;7.93;;;20.70;99.90;;;;;;5026711;28;20087;-58
2021/06/16 07:05:32;;;;;;;15.02;7.50;;;20.80;99.90;;;;;;5030006;28;20495;-56
2021/06/16 07:07:58;;;;;;;11.60;7.03;;;20.90;99.90;;;;;;5030141;28;20112;-60
2021/06/16 07:10:23;;;;;;;46.20;9.98;;;20.90;99.90;;;;;;5029955;28;20071;-60
2021/06/16 07:12:49;;;;;;;20.58;8.23;;;21.00;99.90;;;;;;5030242;28;20030;-60
2021/06/16 07:15:15;;;;;;;16.23;7.18;;;21.10;99.90;;;;;;5029464;28;20757;-60
2021/06/16 07:17:41;;;;;;;14.27;7.55;;;21.20;99.90;;;;;;5029929;28;20041;-61
2021/06/16 07:20:08;;;;;;;13.07;7.20;;;21.30;99.90;;;;;;5030068;28;20026;-60
2021/06/16 07:22:34;;;;;;;12.93;7.38;;;21.30;99.90;;;;;;5022958;28;20100;-60
2021/06/16 07:24:59;;;;;;;15.00;7.97;;;21.30;99.90;;;;;;5030064;28;20448;-56
2021/06/16 07:27:25;;;;;;;14.75;6.88;;;21.40;99.90;;;;;;5031919;28;20021;-59
2021/06/16 07:29:51;;;;;;;10.90;7.40;;;21.40;99.90;;;;;;5029834;28;20076;-60
2021/06/16 07:32:17;;;;;;;18.17;7.60;;;21.40;99.90;;;;;;5029555;28;20376;-59
2021/06/16 07:34:43;;;;;;;10.95;7.40;;;21.50;99.90;;;;;;5029478;28;20034;-59
2021/06/16 07:37:09;;;;;;;12.40;7.25;;;21.60;99.90;;;;;;5029284;28;21135;-61
2021/06/16 07:39:34;;;;;;;11.98;7.63;;;21.60;99.90;;;;;;5029951;28;20033;-60
2021/06/16 07:42:00;;;;;;;13.10;7.90;;;21.70;99.90;;;;;;5028505;28;20403;-60
2021/06/16 07:44:26;;;;;;;14.45;7.40;;;21.80;99.90;;;;;;5028575;28;20030;-60
2021/06/16 07:46:52;;;;;;;13.20;8.07;;;21.90;99.90;;;;;;5028669;28;20413;-62
2021/06/16 07:49:18;;;;;;;12.07;7.82;;;22.00;99.90;;;;;;5033070;28;20685;-57
2021/06/16 07:51:43;;;;;;;11.55;8.07;;;22.10;99.90;;;;;;5029135;28;20041;-61
2021/06/16 07:54:11;;;;;;;10.95;8.40;;;22.10;99.90;;;;;;5029653;28;20045;-60
2021/06/16 07:56:39;;;;;;;14.15;7.75;;;22.20;99.90;;;;;;5027387;28;20510;-59
2021/06/16 07:59:04;;;;;;;16.65;7.55;;;22.40;99.90;;;;;;5031152;28;20109;-59
2021/06/16 08:01:31;;;;;;;14.65;8.07;;;22.40;99.90;;;;;;5028800;28;20557;-59
2021/06/16 08:03:56;;;;;;;15.30;7.85;;;22.50;99.90;;;;;;5029264;28;20033;-59
2021/06/16 08:06:22;;;;;;;16.85;8.48;;;22.60;99.90;;;;;;5029143;28;20041;-56
2021/06/16 08:08:47;;;;;;;13.95;9.07;;;22.70;99.90;;;;;;5030846;28;20578;-57
2021/06/16 08:11:14;;;;;;;17.40;8.60;;;22.70;99.90;;;;;;5029751;28;20037;-59
2021/06/16 08:13:40;;;;;;;11.57;8.20;;;22.80;99.90;;;;;;5026646;28;20040;-59
2021/06/16 08:16:06;;;;;;;12.25;8.07;;;22.90;99.90;;;;;;5029015;28;20055;-60
2021/06/16 08:18:31;;;;;;;12.13;8.38;;;22.90;99.90;;;;;;5025166;28;20017;-59
2021/06/16 08:20:57;;;;;;;15.68;9.02;;;23.00;99.90;;;;;;5026285;28;20104;-57
2021/06/16 08:23:23;;;;;;;12.40;8.35;;;23.10;99.90;;;;;;5028905;28;20034;-60
2021/06/16 08:25:48;;;;;;;15.60;8.63;;;23.20;99.90;;;;;;5027990;28;20033;-53
2021/06/16 08:28:14;;;;;;;16.35;8.88;;;23.20;99.90;;;;;;5028359;28;20040;-56
2021/06/16 08:30:39;;;;;;;11.80;8.48;;;23.30;99.90;;;;;;5029150;28;20041;-58
2021/06/16 08:33:05;;;;;;;18.95;9.07;;;23.40;99.90;;;;;;5030295;28;20525;-58
2021/06/16 08:35:30;;;;;;;12.27;8.45;;;23.50;99.90;;;;;;5032711;28;20026;-56
2021/06/16 08:37:56;;;;;;;14.93;8.98;;;23.60;99.90;;;;;;5038012;28;20029;-59
2021/06/16 08:40:22;;;;;;;13.90;8.80;;;23.60;99.90;;;;;;5028070;28;20033;-59
2021/06/16 08:42:47;;;;;;;16.60;9.43;;;23.70;99.90;;;;;;5031811;28;20032;-60
2021/06/16 08:45:15;;;;;;;12.52;9.55;;;23.80;99.90;;;;;;5031652;28;20049;-57
2021/06/16 08:47:42;;;;;;;13.50;8.85;;;23.90;99.90;;;;;;5030956;28;20029;-58
2021/06/16 08:50:10;;;;;;;15.05;8.45;;;23.90;99.90;;;;;;5026191;28;20034;-58
2021/06/16 08:52:36;;;;;;;15.35;8.57;;;24.00;99.90;;;;;;5032121;28;20079;-60
2021/06/16 08:55:04;;;;;;;24.75;9.75;;;24.10;99.90;;;;;;5032551;28;20033;-58
2021/06/16 08:57:30;;;;;;;60.38;10.52;;;24.20;99.90;;;;;;5030977;28;20022;-57
2021/06/16 08:59:55;;;;;;;21.17;9.82;;;24.30;99.90;;;;;;5032427;28;20029;-63
2021/06/16 09:02:21;;;;;;;18.75;10.45;;;24.50;99.90;;;;;;5031667;28;20818;-62
2021/06/16 09:04:49;;;;;;;11.90;8.70;;;24.60;99.90;;;;;;5032593;28;20045;-61
2021/06/16 09:07:26;;;;;;;16.73;8.75;;;24.80;99.90;;;;;;5032573;28;20116;-62
2021/06/16 09:10:18;;;;;;;26.27;10.60;;;24.90;99.90;;;;;;5032813;28;20037;-62
2021/06/16 09:12:54;;;;;;;20.15;9.07;;;25.00;99.90;;;;;;5031408;28;20029;-63
2021/06/16 09:15:23;;;;;;;23.40;9.50;;;25.20;99.90;;;;;;5032171;28;20031;-60
2021/06/16 09:18:06;;;;;;;15.32;8.60;;;25.30;99.90;;;;;;5034733;28;20022;-62
2021/06/16 09:20:39;;;;;;;23.58;9.10;;;25.40;99.90;;;;;;5031957;28;20033;-61
2021/06/16 09:23:24;;;;;;;16.10;9.43;;;25.60;99.90;;;;;;5031412;28;20107;-61
2021/06/16 09:26:12;;;;;;;14.52;8.73;;;25.70;99.90;;;;;;5030536;28;20174;-59
2021/06/16 09:28:46;;;;;;;17.60;9.07;;;25.90;99.90;;;;;;5032678;28;20025;-62
2021/06/16 09:31:14;;;;;;;16.20;9.10;;;26.10;99.90;;;;;;5031519;28;20025;-62
2021/06/16 09:33:41;;;;;;;17.38;8.65;;;26.20;99.90;;;;;;5031512;28;20481;-61
2021/06/16 09:36:13;;;;;;;14.85;8.73;;;26.40;99.90;;;;;;5031254;28;20025;-63
2021/06/16 09:38:38;;;;;;;12.88;8.10;;;26.60;99.90;;;;;;5032009;28;20588;-63
2021/06/16 09:41:10;;;;;;;13.55;8.02;;;26.70;99.90;;;;;;5031015;28;20116;-62
2021/06/16 09:43:37;;;;;;;13.05;8.30;;;26.70;99.90;;;;;;5027498;28;20025;-63
2021/06/16 09:46:05;;;;;;;16.48;8.68;;;26.90;99.90;;;;;;5030479;28;20038;-62
2021/06/16 09:48:39;;;;;;;13.55;8.80;;;27.00;99.90;;;;;;5028071;28;20080;-64
2021/06/16 09:51:18;;;;;;;20.67;7.80;;;27.10;99.90;;;;;;5030022;28;20026;-63
2021/06/16 09:54:01;;;;;;;12.70;7.97;;;27.40;99.90;;;;;;5030989;28;20502;-61
2021/06/16 09:56:29;;;;;;;13.15;8.60;;;27.60;99.90;;;;;;5031308;28;20043;-62
2021/06/16 09:58:55;;;;;;;12.40;8.23;;;27.70;99.90;;;;;;5031492;28;20022;-62
2021/06/16 10:01:42;;;;;;;17.33;8.40;;;27.70;99.90;;;;;;5029774;28;20060;-63
2021/06/16 10:04:08;;;;;;;14.27;8.85;;;27.90;99.90;;;;;;5027806;28;20033;-59
2021/06/16 10:06:34;;;;;;;12.63;7.18;;;28.10;99.90;;;;;;5027951;28;20056;-62
2021/06/16 10:09:09;;;;;;;12.57;8.02;;;28.40;99.90;;;;;;5028454;28;20112;-61
2021/06/16 10:11:35;;;;;;;12.68;8.57;;;28.60;99.90;;;;;;5025206;28;20079;-58
2021/06/16 10:14:00;;;;;;;11.00;7.10;;;28.60;99.90;;;;;;5029234;28;20026;-59
2021/06/16 10:16:28;;;;;;;9.35;7.13;;;28.50;99.90;;;;;;5026307;28;20040;-60
2021/06/16 10:18:54;;;;;;;16.55;7.68;;;28.60;99.90;;;;;;5027070;28;20078;-63
2021/06/16 10:21:22;;;;;;;13.35;7.20;;;28.80;99.90;;;;;;5028840;28;20029;-60
2021/06/16 10:23:48;;;;;;;11.75;7.15;;;29.10;99.90;;;;;;5027486;28;20034;-62
2021/06/16 10:26:25;;;;;;;11.05;7.38;;;29.00;99.90;;;;;;5026749;28;20033;-60
2021/06/16 10:29:04;;;;;;;9.63;6.72;;;29.20;99.90;;;;;;5028943;28;20025;-62
2021/06/16 10:31:41;;;;;;;8.32;7.00;;;29.50;99.90;;;;;;5027212;28;20021;-62
2021/06/16 10:34:08;;;;;;;13.88;7.40;;;29.80;99.90;;;;;;5028102;28;20038;-63
2021/06/16 10:36:36;;;;;;;11.07;7.50;;;29.80;99.90;;;;;;5027430;28;20537;-61
2021/06/16 10:39:02;;;;;;;10.27;7.05;;;30.10;99.90;;;;;;5027805;28;20074;-63
2021/06/16 10:41:49;;;;;;;12.60;6.97;;;30.10;99.90;;;;;;5026701;28;20823;-64
2021/06/16 10:44:20;;;;;;;10.50;6.78;;;30.30;99.90;;;;;;5023893;28;20156;-61
2021/06/16 10:46:52;;;;;;;11.95;6.50;;;30.40;99.90;;;;;;5027463;28;20037;-61
2021/06/16 10:49:52;;;;;;;9.90;6.80;;;30.40;99.90;;;;;;5026747;28;20111;-63
2021/06/16 10:52:23;;;;;;;7.30;6.18;;;30.60;99.90;;;;;;5015972;28;20099;-63
2021/06/16 10:55:03;;;;;;;8.68;6.35;;;30.60;99.90;;;;;;5027008;28;20038;-61
2021/06/16 10:57:30;;;;;;;11.40;6.85;;;31.00;99.90;;;;;;5031658;28;20510;-60
2021/06/16 11:00:01;;;;;;;8.82;6.72;;;31.10;99.90;;;;;;5026993;28;20390;-59
2021/06/16 11:02:31;;;;;;;16.10;6.68;;;31.00;99.90;;;;;;5026727;28;20100;-59
2021/06/16 11:05:21;;;;;;;15.32;7.65;;;31.30;99.90;;;;;;5026647;28;20644;-61
2021/06/16 11:07:47;;;;;;;7.90;6.50;;;31.40;99.90;;;;;;5030558;28;20029;-62
2021/06/16 11:10:13;;;;;;;9.38;6.88;;;31.40;99.90;;;;;;5027138;28;20045;-62
2021/06/16 11:12:49;;;;;;;9.57;6.15;;;31.40;99.90;;;;;;5027074;28;20052;-65
2021/06/16 11:15:24;;;;;;;10.93;6.95;;;31.50;99.90;;;;;;5028206;28;20038;-66
2021/06/16 11:17:58;;;;;;;9.23;6.60;;;31.80;99.90;;;;;;5032604;28;20030;-66
2021/06/16 11:20:36;;;;;;;11.30;6.53;;;32.00;99.90;;;;;;5029523;28;20087;-66
2021/06/16 11:23:06;;;;;;;15.32;7.10;;;32.20;99.90;;;;;;5027923;28;20025;-65
2021/06/16 11:25:37;;;;;;;8.68;6.50;;;32.30;99.90;;;;;;5029102;28;20025;-66
2021/06/16 11:28:36;;;;;;;9.10;5.47;;;32.30;99.80;;;;;;5029683;28;20029;-65
2021/06/16 11:31:06;;;;;;;9.77;6.00;;;32.20;97.90;;;;;;5027719;28;20033;-66
2021/06/16 11:33:45;;;;;;;6.82;5.57;;;32.10;99.40;;;;;;5030239;28;20038;-65
2021/06/16 11:36:19;;;;;;;10.60;5.50;;;32.00;99.50;;;;;;5023182;28;20033;-65
2021/06/16 11:39:02;;;;;;;16.27;6.13;;;31.70;97.40;;;;;;5028719;28;20025;-65
2021/06/16 11:41:28;;;;;;;8.27;5.57;;;32.00;97.80;;;;;;5028414;28;20045;-64
2021/06/16 11:43:56;;;;;;;14.02;6.45;;;32.20;98.50;;;;;;5027851;28;20457;-65
2021/06/16 11:46:27;;;;;;;12.10;6.60;;;32.20;99.90;;;;;;5028239;28;20049;-64
2021/06/16 11:48:58;;;;;;;7.40;5.65;;;32.50;98.70;;;;;;5028564;28;20068;-64
2021/06/16 11:51:33;;;;;;;7.68;5.32;;;32.20;97.40;;;;;;5028816;28;20791;-64
2021/06/16 11:54:19;;;;;;;10.23;6.00;;;32.50;98.80;;;;;;5028938;28;20044;-64
2021/06/16 11:56:47;;;;;;;6.97;5.32;;;32.90;99.40;;;;;;5034982;28;20499;-64
2021/06/16 11:59:12;;;;;;;9.00;5.35;;;33.20;99.10;;;;;;5027698;28;20072;-64
2021/06/16 12:01:38;;;;;;;13.15;5.88;;;33.50;99.90;;;;;;5029146;28;20514;-64
2021/06/16 12:04:04;;;;;;;12.05;5.93;;;33.60;97.10;;;;;;5029205;28;20026;-63
2021/06/16 12:06:29;;;;;;;8.45;5.47;;;33.80;96.50;;;;;;5028893;28;20045;-63
2021/06/16 12:09:00;;;;;;;11.80;6.10;;;34.00;95.10;;;;;;5035289;28;20659;-64
2021/06/16 12:11:35;;;;;;;10.73;5.82;;;33.80;96.60;;;;;;5032994;28;20040;-64
2021/06/16 12:14:00;;;;;;;12.40;5.35;;;33.90;97.00;;;;;;5033269;28;20399;-64
2021/06/16 12:16:39;;;;;;;16.55;5.95;;;33.80;96.20;;;;;;5030488;28;20029;-64
2021/06/16 12:19:20;;;;;;;9.00;5.35;;;33.50;94.70;;;;;;5026862;28;20079;-64
2021/06/16 12:21:57;;;;;;;7.93;5.50;;;33.60;94.40;;;;;;5035654;28;20033;-64
2021/06/16 12:24:28;;;;;;;11.32;4.93;;;33.80;95.20;;;;;;5032556;28;20033;-63
2021/06/16 12:27:02;;;;;;;7.53;4.57;;;33.90;94.50;;;;;;5033027;28;20098;-63
2021/06/16 12:29:32;;;;;;;8.55;4.65;;;34.20;95.20;;;;;;5033073;28;20083;-63
2021/06/16 12:32:01;;;;;;;11.88;4.57;;;34.40;93.60;;;;;;5031616;28;20454;-63
2021/06/16 12:37:06;;;;;;;7.82;5.20;;;34.40;93.50;;;;;;5029157;28;20631;-63
2021/06/16 12:39:33;;;;;;;5.97;4.35;;;34.50;92.90;;;;;;5031625;28;20510;-64
2021/06/16 12:42:05;;;;;;;7.75;5.88;;;34.50;92.20;;;;;;5032277;28;20022;-64
2021/06/16 12:44:41;;;;;;;8.70;4.55;;;34.10;91.50;;;;;;5029433;28;20521;-63
2021/06/16 12:47:25;;;;;;;7.43;5.40;;;34.00;91.30;;;;;;5030712;28;20029;-63
2021/06/16 12:49:52;;;;;;;14.27;5.30;;;33.80;93.30;;;;;;5029987;28;20037;-64